< < Back
Terminal Aerodrome Forecast


Current Version              Previous Versions:   1  2  3  4  5  6  7  8  9  

Terminal Aerodrome Forecast

928
FTUS42 KJAX 301121
TAFGNV
TAF
KGNV 301121Z 3012/0112 25004KT P6SM SCT250
     FM301300 27006KT P6SM VCSH SCT030 BKN150
     FM301600 26010KT P6SM VCTS BKN035CB
     FM302300 24007KT P6SM SCT040 BKN100
     FM010300 VRB03KT P6SM BKN250=

Latest METAR

959
SAUS70 KWBC 301900 RRN
MTRGNV
METAR KGNV 301853Z 25017G24KT 10SM CLR 33/21 A3006 RMK AO2 LTG DSNT N
SLP176 T03330206


USA.gov is the U.S. government's official web portal to all federal, state and local government web resources and services.